D/T METAR WX W/DIR W/SPE G/SPE TEMP DEWP
27/05/19 08:50 EGPH 270750Z VRB02KT 9999 -RA FEW013 BKN030 10/06 Q1006 -RA N (0°) 2.3mph 10°C 6°C
27/05/19 08:20 EGPH 270720Z VRB03KT 9999 FEW013 BKN030 09/06 Q1006 N (0°) 3.5mph 9°C 6°C
27/05/19 07:50 EGPH 270650Z VRB02KT 9999 BKN029 09/06 Q1005 N (0°) 2.3mph 9°C 6°C
27/05/19 07:20 EGPH 270620Z VRB03KT 9999 SCT017 BKN046 09/06 Q1005 N (0°) 3.5mph 9°C 6°C
27/05/19 06:50 EGPH 270550Z 29004KT 250V340 9999 SCT016 BKN045 09/06 Q1005 WNW (290°) 4.6mph 9°C 6°C
27/05/19 06:20 EGPH 270520Z 27006KT 250V320 9999 BKN019 09/07 Q1004 W (270°) 6.9mph 9°C 7°C
27/05/19 05:50 EGPH 270450Z 28006KT 250V310 9999 SCT018 BKN040 09/06 Q1004 W (280°) 6.9mph 9°C 6°C
27/05/19 05:20 EGPH 270420Z 28005KT 250V320 9999 BKN019 09/06 Q1004 W (280°) 5.8mph 9°C 6°C
27/05/19 04:50 EGPH 270350Z 27008KT 9999 BKN024 09/06 Q1003 W (270°) 9.2mph 9°C 6°C
27/05/19 03:50 EGPH 270250Z 27010KT 240V300 9999 FEW004 SCT011 OVC025 10/07 Q1002 W (270°) 11.5mph 10°C 7°C
27/05/19 03:20 EGPH 270220Z 26012KT 8000 -RA FEW004 BKN011 10/09 Q1002 -RA W (260°) 13.8mph 10°C 9°C
27/05/19 02:50 EGPH 270150Z 26011KT 9999 OVC013 11/09 Q1001 W (260°) 12.7mph 11°C 9°C
27/05/19 02:20 EGPH 270120Z 25014KT 9999 OVC014 11/09 Q1001 WSW (250°) 16.1mph 11°C 9°C
27/05/19 01:50 EGPH 270050Z 24015KT 9999 OVC015 11/08 Q1001 WSW (240°) 17.3mph 11°C 8°C
27/05/19 01:20 EGPH 270020Z 25017KT 9999 OVC016 11/08 Q1002 WSW (250°) 19.6mph 11°C 8°C
27/05/19 00:50 EGPH 262350Z 26014KT 9999 BKN019 11/08 Q1002 W (260°) 16.1mph 11°C 8°C
27/05/19 00:20 EGPH 262320Z 25017KT 9999 FEW023 11/07 Q1002 WSW (250°) 19.6mph 11°C 7°C
26/05/19 23:50 EGPH 262250Z 25018KT 9999 FEW023 11/07 Q1002 WSW (250°) 20.7mph 11°C 7°C
26/05/19 23:20 EGPH 262220Z 25017KT 9999 FEW020 BKN032 11/08 Q1003 WSW (250°) 19.6mph 11°C 8°C
26/05/19 22:50 EGPH 262150Z 25019KT 9999 SCT019 11/08 Q1003 WSW (250°) 21.9mph 11°C 8°C
26/05/19 22:20 EGPH 262120Z 24021G32KT 9999 FEW022 11/08 Q1003 WSW (240°) 24.2mph 36.8mph 11°C 8°C
26/05/19 21:50 EGPH 262050Z 24018KT 9999 FEW021 11/08 Q1003 WSW (240°) 20.7mph 11°C 8°C
26/05/19 21:20 EGPH 262020Z 24017KT 9999 FEW021 SCT036 11/08 Q1003 WSW (240°) 19.6mph 11°C 8°C
26/05/19 20:50 EGPH 261950Z 25015KT 9999 FEW035 12/07 Q1003 WSW (250°) 17.3mph 12°C 7°C
26/05/19 20:20 EGPH 261920Z 25018KT 9999 FEW031 BKN045 12/07 Q1003 WSW (250°) 20.7mph 12°C 7°C
26/05/19 19:50 EGPH 261850Z 25019KT 9999 SCT045 12/07 Q1003 WSW (250°) 21.9mph 12°C 7°C
26/05/19 19:20 EGPH 261820Z 25018G29KT 9999 SCT030 BKN046 12/07 Q1004 WSW (250°) 20.7mph 33.4mph 12°C 7°C
26/05/19 18:50 EGPH 261750Z 26019G30KT 9999 SCT031 BKN044 13/07 Q1004 W (260°) 21.9mph 34.5mph 13°C 7°C
26/05/19 17:50 EGPH 261650Z 26014G24KT 9999 SCT028 SCT040 14/08 Q1005 W (260°) 16.1mph 27.6mph 14°C 8°C
26/05/19 16:50 EGPH 261550Z 26015G25KT 9999 FEW028 SCT036 14/08 Q1005 W (260°) 17.3mph 28.8mph 14°C 8°C
26/05/19 16:20 EGPH 261520Z 26015G26KT 9999 BKN020TCU 14/09 Q1005 W (260°) 17.3mph 29.9mph 14°C 9°C
26/05/19 15:50 EGPH 261450Z 26018G32KT 230V300 9999 BKN022TCU 13/09 Q1005 W (260°) 20.7mph 36.8mph 13°C 9°C
26/05/19 14:50 EGPH 261350Z 26015KT 9999 5000S -SHRA SCT012TCU SCT037 14/11 Q1004 -SHRA W (260°) 17.3mph 14°C 11°C
26/05/19 14:20 EGPH 261320Z 25017G27KT 9999 SCT019 15/11 Q1004 WSW (250°) 19.6mph 31.1mph 15°C 11°C
26/05/19 13:50 EGPH 261250Z 26018KT 9999 SCT018 16/12 Q1004 W (260°) 20.7mph 16°C 12°C
26/05/19 12:50 EGPH 261150Z 26015KT 9999 BKN019 15/11 Q1004 W (260°) 17.3mph 15°C 11°C
26/05/19 12:20 EGPH 261120Z 25017KT 9999 FEW014 BKN016 16/12 Q1004 WSW (250°) 19.6mph 16°C 12°C
26/05/19 11:20 EGPH 261020Z 26013G24KT 9999 VCSH FEW012 BKN016 15/13 Q1004 VCSH W (260°) 15.0mph 27.6mph 15°C 13°C
26/05/19 10:50 EGPH 260950Z 25012KT 9999 BKN012 15/14 Q1004 WSW (250°) 13.8mph 15°C 14°C
26/05/19 10:20 EGPH 260920Z 25011KT 9000 -RA BKN009 OVC035 14/14 Q1004 -RA WSW (250°) 12.7mph 14°C 14°C
26/05/19 09:50 EGPH 260850Z 26011KT 6000 -RADZ BKN010 OVC034 14/13 Q1004 -RA -DZ W (260°) 12.7mph 14°C 13°C
26/05/19 09:20 EGPH 260820Z 26011KT 9000 -RA BKN009 OVC026 14/13 Q1004 -RA W (260°) 12.7mph 14°C 13°C
26/05/19 08:50 EGPH 260750Z 27010KT 230V300 8000 -RA BKN009 OVC023 14/13 Q1004 -RA W (270°) 11.5mph 14°C 13°C
26/05/19 08:20 EGPH 260720Z 25010KT 6000 VCSH BKN008 OVC024 14/14 Q1004 VCSH WSW (250°) 11.5mph 14°C 14°C
26/05/19 07:50 EGPH 260650Z VRB02KT 6000 -DZ FEW001 BKN008 OVC024 12/12 Q1004 REDZ -DZ N (0°) 2.3mph 12°C 12°C
26/05/19 07:20 EGPH 260620Z 05005KT 6000 -RA FEW001 BKN010 OVC024 11/11 Q1004 -RA NE (50°) 5.8mph 11°C 11°C
26/05/19 06:50 EGPH 260550Z 04005KT 320V070 4000 -DZ BR SCT001 BKN010 OVC024 11/11 Q1005 -DZ BR NE (40°) 5.8mph 11°C 11°C
26/05/19 06:20 EGPH 260520Z 06003KT 9999 -RA FEW001 SCT010 BKN023 13/13 Q1005 -RA ENE (60°) 3.5mph 13°C 13°C